Time;durP1;ratioP1;P1;durP2;ratioP2;P2;SDS_P1;SDS_P2;PMS_P1;PMS_P2;Temp;Humidity;BMP_temperature;BMP_pressure;BME280_temperature;BME280_humidity;BME280_pressure;Samples;Min_cycle;Max_cycle;Signal;HPM_P1;HPM_P2
2020/12/28 00:00:32;;;;;;;;;31.25;30.75;;;;;24.47;60.84;98944.47;5037391;28;10289;-75
2020/12/28 00:03:04;;;;;;;;;30.75;30.00;;;;;24.49;60.12;98958.38;5042239;28;10275;-75
2020/12/28 00:05:32;;;;;;;;;28.50;24.50;;;;;24.51;60.71;98972.28;5043074;28;10187;-74
2020/12/28 00:08:01;;;;;;;;;35.25;29.00;;;;;24.48;61.36;98971.06;5036066;28;10927;-74
2020/12/28 00:10:30;;;;;;;;;33.75;27.25;;;;;24.45;60.69;98971.78;5042237;28;9915;-75
2020/12/28 00:13:00;;;;;;;;;27.75;25.25;;;;;24.41;59.64;98970.13;5038975;28;9937;-74
2020/12/28 00:15:30;;;;;;;;;32.00;29.00;;;;;24.42;61.46;98975.19;5042148;28;10175;-75
2020/12/28 00:18:01;;;;;;;;;33.00;29.50;;;;;24.45;60.81;98981.78;5042461;28;9835;-75
2020/12/28 00:20:31;;;;;;;;;26.75;21.75;;;;;24.49;61.71;98996.91;5027907;28;10069;-76
2020/12/28 00:23:01;;;;;;;;;30.25;27.75;;;;;24.45;60.47;98992.56;5042617;28;10047;-75
2020/12/28 00:25:29;;;;;;;;;32.75;28.50;;;;;24.33;60.65;98978.06;5046084;28;10132;-74
2020/12/28 00:28:04;;;;;;;;;34.50;29.25;;;;;24.30;60.11;98980.69;5042789;28;10016;-74
2020/12/28 00:30:32;;;;;;;;;28.00;28.00;;;;;24.51;60.64;99005.41;5035083;28;9904;-73
2020/12/28 00:33:00;;;;;;;;;23.00;23.00;;;;;24.43;59.73;98995.63;5020350;28;10017;-72
2020/12/28 00:35:29;;;;;;;;;27.25;24.25;;;;;24.50;60.37;99014.66;5033569;28;9773;-73
2020/12/28 00:37:57;;;;;;;;;24.00;22.75;;;;;24.52;60.16;99025.09;5034051;28;9781;-74
2020/12/28 00:40:38;;;;;;;;;56.00;45.75;;;;;24.48;61.32;99030.41;5040854;28;9533;-74
2020/12/28 00:43:10;;;;;;;;;22.50;20.00;;;;;24.51;60.65;99027.00;5035183;28;11515;-75
2020/12/28 00:45:39;;;;;;;;;24.50;23.00;;;;;24.44;59.55;99029.53;5040293;28;9440;-73
2020/12/28 00:48:07;;;;;;;;;22.25;15.25;;;;;24.49;60.14;99039.28;5039686;28;10498;-71
2020/12/28 00:50:36;;;;;;;;;24.75;22.75;;;;;24.51;59.76;99053.97;5033934;28;9594;-73
2020/12/28 00:53:08;;;;;;;;;24.25;21.25;;;;;24.53;60.55;99056.31;5028097;28;9622;-73
2020/12/28 00:55:37;;;;;;;;;13.25;12.75;;;;;24.50;60.13;99052.41;5038199;28;9594;-74
2020/12/28 00:58:05;;;;;;;;;15.25;14.75;;;;;24.52;60.28;99063.63;5036962;28;9830;-76
2020/12/28 01:00:40;;;;;;;;;23.50;20.25;;;;;24.48;61.53;99051.97;5035948;28;9530;-75
2020/12/28 01:03:11;;;;;;;;;18.75;17.50;;;;;24.55;61.27;99076.41;5039770;28;9460;-74
2020/12/28 01:05:40;;;;;;;;;15.67;15.33;;;;;24.56;61.12;99083.38;5033636;28;9490;-74
2020/12/28 01:08:09;;;;;;;;;16.67;16.67;;;;;24.58;61.10;99081.09;5037284;28;10228;-75
2020/12/28 01:10:43;;;;;;;;;15.75;15.75;;;;;24.60;59.51;99086.91;5023975;28;9382;-74
2020/12/28 01:13:13;;;;;;;;;18.00;16.25;;;;;24.62;59.88;99089.25;5038845;28;9388;-73
2020/12/28 01:15:45;;;;;;;;;17.00;15.00;;;;;24.57;61.30;99089.53;5039623;28;9463;-73
2020/12/28 01:18:14;;;;;;;;;22.25;20.25;;;;;24.46;60.58;99075.03;5037919;28;9433;-74
2020/12/28 01:20:42;;;;;;;;;27.25;23.00;;;;;24.56;60.10;99093.38;5034350;28;9645;-73
2020/12/28 01:23:10;;;;;;;;;21.50;20.25;;;;;24.72;59.92;99112.97;5038818;28;9645;-73
2020/12/28 01:25:40;;;;;;;;;25.25;24.75;;;;;24.77;60.21;99111.91;5043982;28;10431;-72
2020/12/28 01:28:08;;;;;;;;;21.00;21.00;;;;;24.67;59.72;99100.56;5042772;28;9764;-73
2020/12/28 01:30:36;;;;;;;;;25.00;23.25;;;;;24.69;59.71;99102.91;5026907;28;9668;-73
2020/12/28 01:33:05;;;;;;;;;29.00;24.00;;;;;24.85;59.63;99132.53;5042957;28;9621;-72
2020/12/28 01:35:38;;;;;;;;;18.75;18.25;;;;;24.75;59.27;99112.28;5033544;28;9608;-76
2020/12/28 01:38:06;;;;;;;;;23.75;22.25;;;;;24.91;59.78;99128.41;5030717;28;9552;-76
2020/12/28 01:40:35;;;;;;;;;19.75;18.50;;;;;25.01;61.20;99136.00;5036745;28;9760;-74
2020/12/28 01:43:03;;;;;;;;;20.00;20.00;;;;;25.08;58.75;99138.84;5039298;28;9576;-75
2020/12/28 01:45:33;;;;;;;;;21.00;17.67;;;;;25.11;59.02;99135.44;5040917;28;9664;-74
2020/12/28 01:48:01;;;;;;;;;16.33;16.33;;;;;25.11;59.58;99131.97;5048449;28;9505;-75
2020/12/28 01:50:30;;;;;;;;;15.33;14.00;;;;;25.18;59.37;99146.41;5044089;28;9253;-74
2020/12/28 01:52:58;;;;;;;;;14.33;14.33;;;;;25.19;58.75;99141.78;5038923;28;9353;-74
2020/12/28 01:55:29;;;;;;;;;13.67;12.67;;;;;25.09;58.59;99118.03;5039857;28;9328;-75
2020/12/28 01:57:57;;;;;;;;;18.33;16.00;;;;;25.22;58.82;99152.66;5046653;28;9111;-75
2020/12/28 02:00:26;;;;;;;;;13.33;11.67;;;;;25.15;58.36;99128.22;5041806;28;9149;-75
2020/12/28 02:02:55;;;;;;;;;15.00;12.00;;;;;25.23;59.20;99135.31;5042700;28;9238;-75
2020/12/28 02:05:23;;;;;;;;;13.67;12.67;;;;;25.24;58.71;99134.19;5041209;28;9185;-75
2020/12/28 02:07:54;;;;;;;;;15.33;15.33;;;;;25.24;60.09;99136.88;5042086;28;9400;-75
2020/12/28 02:10:27;;;;;;;;;13.33;12.33;;;;;25.27;60.65;99143.50;5040287;28;9158;-76
2020/12/28 02:12:55;;;;;;;;;13.50;11.75;;;;;25.33;60.03;99145.56;5029705;28;9743;-74
2020/12/28 02:15:24;;;;;;;;;13.33;13.33;;;;;25.37;58.79;99148.34;5040712;28;8875;-76
2020/12/28 02:17:56;;;;;;;;;16.33;12.33;;;;;25.40;58.24;99152.25;5042886;28;9076;-78
2020/12/28 02:20:25;;;;;;;;;14.67;13.00;;;;;25.41;58.84;99143.00;5039741;28;9076;-76
2020/12/28 02:22:56;;;;;;;;;13.67;13.67;;;;;25.46;59.15;99150.81;5041313;28;9188;-76
2020/12/28 02:25:25;;;;;;;;;17.00;17.00;;;;;25.44;58.80;99150.41;5040653;28;9095;-75
2020/12/28 02:27:54;;;;;;;;;12.33;12.33;;;;;25.46;58.14;99145.41;5041142;28;9276;-76
2020/12/28 02:30:22;;;;;;;;;14.00;12.00;;;;;25.52;58.38;99149.41;5041524;28;9112;-74
2020/12/28 02:32:51;;;;;;;;;7.50;7.50;;;;;25.55;59.09;99159.50;5046570;28;8999;-75
2020/12/28 02:35:19;;;;;;;;;10.50;9.75;;;;;25.56;59.07;99151.03;5045448;28;8857;-75
2020/12/28 02:37:58;;;;;;;;;11.67;9.67;;;;;25.62;57.85;99160.41;5043246;28;8831;-77
2020/12/28 02:40:26;;;;;;;;;13.67;12.00;;;;;25.57;58.24;99141.78;5015706;28;8916;-76
2020/12/28 02:42:55;;;;;;;;;9.67;9.67;;;;;25.65;58.48;99159.72;5033211;28;9000;-74
2020/12/28 02:45:25;;;;;;;;;10.00;10.00;;;;;25.68;58.00;99155.53;5033386;28;9072;-75
2020/12/28 02:47:56;;;;;;;;;11.50;10.75;;;;;25.71;58.13;99156.75;5032401;28;8940;-75
2020/12/28 02:50:28;;;;;;;;;10.00;8.00;;;;;25.72;57.98;99153.69;5033385;28;8918;-76
2020/12/28 02:52:56;;;;;;;;;8.50;8.00;;;;;25.75;57.92;99157.59;5024217;28;9502;-76
2020/12/28 02:55:26;;;;;;;;;9.00;9.00;;;;;25.69;58.69;99143.59;5039719;28;8837;-74
2020/12/28 02:57:55;;;;;;;;;9.00;9.00;;;;;25.74;58.55;99142.50;5030717;28;9681;-74
2020/12/28 03:00:23;;;;;;;;;10.25;7.50;;;;;25.75;58.43;99150.25;5041045;28;8884;-75
2020/12/28 03:02:53;;;;;;;;;7.00;6.25;;;;;25.87;58.31;99144.69;5042471;28;8858;-74
2020/12/28 03:05:21;;;;;;;;;0.67;0.00;;;;;25.96;58.12;99149.88;5043356;28;8913;-75
2020/12/28 03:07:50;;;;;;;;;8.25;7.00;;;;;25.94;58.44;99136.72;5039947;28;8917;-75
2020/12/28 03:10:19;;;;;;;;;9.50;7.75;;;;;26.01;58.25;99138.75;5038823;28;8931;-75
2020/12/28 03:12:47;;;;;;;;;9.25;9.25;;;;;26.11;57.70;99140.06;5029069;28;8897;-76
2020/12/28 03:15:16;;;;;;;;;9.25;7.75;;;;;26.16;57.73;99137.84;5040181;28;8829;-76
2020/12/28 03:17:45;;;;;;;;;7.75;7.75;;;;;26.15;58.15;99127.41;5032004;28;8861;-73
2020/12/28 03:20:13;;;;;;;;;12.50;9.75;;;;;26.16;57.42;99121.63;5039319;28;8897;-75
2020/12/28 03:22:42;;;;;;;;;12.75;9.50;;;;;26.25;57.72;99134.91;5032273;28;8856;-76
2020/12/28 03:25:10;;;;;;;;;10.75;8.00;;;;;26.30;57.92;99135.38;5049829;28;8855;-76
2020/12/28 03:27:39;;;;;;;;;7.50;6.75;;;;;26.35;57.24;99126.22;5049169;28;8818;-77
2020/12/28 03:30:14;;;;;;;;;10.25;9.00;;;;;26.37;56.92;99120.44;5039033;28;8907;-76
2020/12/28 03:32:42;;;;;;;;;6.50;6.50;;;;;26.41;56.37;99126.69;5038469;28;8826;-75
2020/12/28 03:35:20;;;;;;;;;7.25;6.25;;;;;26.36;56.99;99100.72;5043032;28;8845;-74
2020/12/28 03:37:49;;;;;;;;;5.00;3.50;;;;;26.37;56.91;99099.59;5040393;28;8850;-73
2020/12/28 03:40:18;;;;;;;;;9.00;7.50;;;;;26.50;57.03;99111.78;5039619;28;8882;-74
2020/12/28 03:42:46;;;;;;;;;6.75;6.75;;;;;26.56;56.80;99109.53;5017872;28;9699;-74
2020/12/28 03:45:15;;;;;;;;;6.50;5.25;;;;;26.59;56.52;99103.41;5028081;28;8849;-72
2020/12/28 03:47:43;;;;;;;;;8.67;6.67;;;;;26.58;56.70;99096.41;5020214;28;8850;-71
2020/12/28 03:50:11;;;;;;;;;6.75;6.50;;;;;26.60;56.42;99086.00;5023581;28;8844;-71
2020/12/28 03:52:40;;;;;;;;;8.75;7.00;;;;;26.69;56.63;99094.66;5018761;28;8876;-71
2020/12/28 03:55:13;;;;;;;;;8.50;8.50;;;;;26.49;56.28;99064.22;5031835;28;9020;-71
2020/12/28 03:57:42;;;;;;;;;2.25;0.25;;;;;26.73;56.76;99081.94;5017936;28;8848;-72
2020/12/28 04:00:10;;;;;;;;;10.25;9.25;;;;;26.77;56.84;99085.50;5023798;28;8846;-72
2020/12/28 04:02:40;;;;;;;;;8.50;8.50;;;;;26.84;56.43;99079.38;5021426;28;8834;-71
2020/12/28 04:05:09;;;;;;;;;6.75;6.75;;;;;26.91;56.38;99072.13;5025609;28;8834;-72
2020/12/28 04:07:37;;;;;;;;;10.00;8.00;;;;;26.95;56.17;99074.91;5025079;28;8867;-72
2020/12/28 04:10:05;;;;;;;;;8.00;8.00;;;;;26.94;56.04;99063.28;5025512;28;9610;-72
2020/12/28 04:12:33;;;;;;;;;9.25;8.25;;;;;26.96;56.03;99054.78;5023988;28;8994;-74
2020/12/28 04:15:02;;;;;;;;;6.25;5.50;;;;;26.97;55.95;99042.84;5025075;28;9515;-73
2020/12/28 04:17:30;;;;;;;;;3.75;3.00;;;;;27.07;55.70;99053.03;5022743;28;8869;-72
2020/12/28 04:19:59;;;;;;;;;6.00;6.00;;;;;27.07;55.56;99053.03;5019893;28;8880;-73
2020/12/28 04:22:28;;;;;;;;;9.00;8.75;;;;;27.10;55.75;99043.38;5015682;28;8848;-73
2020/12/28 04:24:56;;;;;;;;;10.75;8.50;;;;;27.19;55.66;99050.06;5017792;28;8857;-74
2020/12/28 04:27:25;;;;;;;;;7.50;7.50;;;;;27.12;55.74;99028.34;5018386;28;8848;-72
2020/12/28 04:29:56;;;;;;;;;12.75;8.75;;;;;27.19;55.57;99031.13;5018505;28;8989;-72
2020/12/28 04:32:25;;;;;;;;;13.00;12.00;;;;;27.27;55.45;99034.69;5013241;28;8853;-77
2020/12/28 04:34:54;;;;;;;;;8.75;6.75;;;;;27.29;55.50;99027.75;5009611;28;8937;-74
2020/12/28 04:37:23;;;;;;;;;9.25;6.50;;;;;27.37;55.08;99025.09;5010960;28;8958;-76
2020/12/28 04:40:10;;;;;;;;;11.25;8.50;;;;;27.48;55.44;99029.47;5017940;28;8829;-75
2020/12/28 04:42:43;;;;;;;;;10.50;10.00;;;;;27.47;55.21;99021.69;5019434;28;8937;-74
2020/12/28 04:45:12;;;;;;;;;8.25;7.00;;;;;27.51;54.72;99017.09;5030176;28;8839;-74
2020/12/28 04:47:41;;;;;;;;;10.50;10.25;;;;;27.55;54.48;99015.19;5037303;28;8839;-75
2020/12/28 04:50:14;;;;;;;;;9.00;8.00;;;;;27.51;54.85;98993.50;5035275;28;8858;-74
2020/12/28 04:52:50;;;;;;;;;24.33;21.33;;;;;27.65;55.08;98992.88;5042093;28;8837;-75
2020/12/28 04:55:19;;;;;;;;;14.50;14.00;;;;;27.69;54.41;98990.19;5044697;28;9363;-73
2020/12/28 04:57:50;;;;;;;;;37.50;30.50;;;;;27.77;54.41;98986.38;5044362;28;8969;-74
2020/12/28 05:00:19;;;;;;;;;13.00;13.00;;;;;27.76;54.37;98974.75;5038388;28;9681;-73
2020/12/28 05:02:48;;;;;;;;;10.50;10.50;;;;;27.89;54.04;98969.81;5038856;28;8951;-74
2020/12/28 05:05:17;;;;;;;;;15.25;12.00;;;;;27.96;54.23;98960.97;5044282;28;8881;-76
2020/12/28 05:07:52;;;;;;;;;17.50;17.50;;;;;28.09;53.63;98954.84;5043377;28;8935;-73
2020/12/28 05:10:21;;;;;;;;;14.25;14.25;;;;;28.19;53.56;98945.22;5032416;28;8829;-75
2020/12/28 05:12:50;;;;;;;;;16.75;15.75;;;;;28.30;53.26;98940.66;5030675;28;8825;-75
2020/12/28 05:15:19;;;;;;;;;14.00;12.25;;;;;28.44;53.11;98938.03;5039485;28;9095;-76
2020/12/28 05:17:55;;;;;;;;;15.25;13.00;;;;;28.54;52.59;98939.22;5040378;28;8835;-75
2020/12/28 05:20:25;;;;;;;;;17.25;13.00;;;;;28.60;52.82;98926.84;5038687;28;8864;-76
2020/12/28 05:22:55;;;;;;;;;14.50;12.25;;;;;28.65;52.77;98920.25;5042026;28;8976;-74
2020/12/28 05:25:27;;;;;;;;;11.00;9.00;;;;;28.72;52.22;98921.03;5039259;28;9570;-74
2020/12/28 05:28:05;;;;;;;;;12.50;11.00;;;;;28.78;52.36;98911.38;5038630;28;8960;-73
2020/12/28 05:30:55;;;;;;;;;15.00;13.50;;;;;28.86;52.31;98909.47;5021272;28;8845;-75
2020/12/28 05:33:34;;;;;;;;;14.75;12.50;;;;;28.94;52.83;98900.19;5042946;28;8852;-74
2020/12/28 05:36:05;;;;;;;;;13.25;11.50;;;;;29.02;52.27;98893.59;5037798;28;8911;-72
2020/12/28 05:38:41;;;;;;;;;14.25;14.25;;;;;29.10;51.77;98892.44;5039499;28;8853;-75
2020/12/28 05:41:12;;;;;;;;;14.25;13.00;;;;;29.15;52.36;98878.47;5043740;28;8928;-75
2020/12/28 05:43:41;;;;;;;;;14.00;11.00;;;;;29.18;51.45;98866.84;5040978;28;8847;-74
2020/12/28 05:46:23;;;;;;;;;13.00;11.50;;;;;29.25;51.83;98868.78;5039252;28;8822;-75
2020/12/28 05:48:55;;;;;;;;;15.50;15.50;;;;;29.35;52.23;98867.22;5037795;28;8847;-74
2020/12/28 05:51:26;;;;;;;;;9.50;9.50;;;;;29.37;52.17;98873.84;5043170;28;8923;-74
2020/12/28 05:53:55;;;;;;;;;10.00;8.25;;;;;29.33;51.36;98855.97;5043659;28;8869;-74
2020/12/28 05:56:25;;;;;;;;;14.00;12.50;;;;;29.39;52.81;98859.84;5047672;28;8918;-72
2020/12/28 05:58:54;;;;;;;;;12.75;11.25;;;;;29.40;51.90;98854.03;5040949;28;8884;-72
2020/12/28 06:01:25;;;;;;;;;11.75;11.00;;;;;29.34;51.59;98838.50;5035514;28;8974;-72
2020/12/28 06:04:00;;;;;;;;;10.00;10.00;;;;;29.34;50.49;98844.72;5031460;28;8851;-74
2020/12/28 06:06:28;;;;;;;;;12.25;10.75;;;;;29.35;51.76;98837.34;5042038;28;8831;-71
2020/12/28 06:08:59;;;;;;;;;10.75;10.75;;;;;29.35;51.11;98829.19;5040900;28;8841;-72
2020/12/28 06:11:28;;;;;;;;;11.75;9.00;;;;;29.31;50.84;98815.59;5049968;28;8849;-72
2020/12/28 06:13:56;;;;;;;;;12.50;12.50;;;;;29.39;50.19;98811.72;5051124;28;8861;-72
2020/12/28 06:16:24;;;;;;;;;12.00;10.75;;;;;29.50;51.01;98812.50;5050795;28;8950;-72
2020/12/28 06:18:58;;;;;;;;;9.00;9.00;;;;;29.59;50.26;98814.81;5052128;28;9611;-71
2020/12/28 06:21:37;;;;;;;;;12.75;11.00;;;;;29.70;49.62;98804.69;5052493;28;8911;-71
2020/12/28 06:24:05;;;;;;;;;12.00;10.50;;;;;29.81;51.64;98800.00;5052949;28;8848;-72
2020/12/28 06:26:34;;;;;;;;;11.25;11.25;;;;;29.90;52.53;98793.38;5035716;28;8869;-74
2020/12/28 06:29:06;;;;;;;;;12.50;12.25;;;;;29.91;52.35;98792.16;5052547;28;8853;-74
2020/12/28 06:31:35;;;;;;;;;15.00;13.25;;;;;29.81;50.90;98775.53;5052872;28;8864;-74
2020/12/28 06:34:04;;;;;;;;;13.75;11.75;;;;;29.78;49.80;98779.03;5036443;28;8882;-71
2020/12/28 06:36:32;;;;;;;;;13.75;13.25;;;;;29.75;50.52;98762.72;5032734;28;8847;-71
2020/12/28 06:39:00;;;;;;;;;13.50;13.50;;;;;29.86;50.04;98774.34;5038248;28;8902;-72
2020/12/28 06:41:30;;;;;;;;;14.00;12.75;;;;;29.96;50.03;98770.00;5048367;28;8863;-71
2020/12/28 06:44:00;;;;;;;;;15.25;13.50;;;;;30.01;50.47;98759.50;5032583;28;9597;-72
2020/12/28 06:46:30;;;;;;;;;14.50;12.50;;;;;30.14;50.63;98757.91;5032792;28;8851;-72
2020/12/28 06:48:59;;;;;;;;;16.25;13.75;;;;;30.22;48.94;98758.63;5032673;28;8843;-72
2020/12/28 06:51:27;;;;;;;;;14.25;13.00;;;;;30.31;49.17;98748.09;5032662;28;8839;-71
2020/12/28 06:53:57;;;;;;;;;14.75;12.50;;;;;30.41;48.56;98749.97;5032936;28;8961;-71
2020/12/28 06:56:26;;;;;;;;;12.50;8.50;;;;;30.52;51.02;98747.94;5032259;28;8859;-71
2020/12/28 06:59:01;;;;;;;;;15.25;13.25;;;;;30.52;49.99;98734.34;5032312;28;8873;-72
2020/12/28 07:01:30;;;;;;;;;11.75;10.50;;;;;30.46;49.12;98725.03;5045187;28;8843;-71
2020/12/28 07:03:58;;;;;;;;;9.25;8.00;;;;;30.50;47.81;98731.25;5014725;28;8848;-71
2020/12/28 07:06:27;;;;;;;;;12.75;12.75;;;;;30.43;48.74;98723.13;5049803;28;8841;-71
2020/12/28 07:09:06;;;;;;;;;13.75;12.25;;;;;30.41;48.41;98722.75;5051640;28;8952;-72
2020/12/28 07:11:36;;;;;;;;;12.75;12.75;;;;;30.46;48.37;98725.03;5048435;28;8906;-72
2020/12/28 07:14:05;;;;;;;;;10.00;10.00;;;;;30.42;49.33;98713.41;5051876;28;8837;-72
2020/12/28 07:16:34;;;;;;;;;12.00;12.00;;;;;30.43;49.03;98719.63;5052274;28;8840;-71
2020/12/28 07:19:04;;;;;;;;;11.00;9.75;;;;;30.27;48.68;98709.22;5051933;28;8845;-72
2020/12/28 07:21:33;;;;;;;;;17.00;12.50;;;;;30.26;49.91;98715.84;5042817;28;8820;-71
2020/12/28 07:24:01;;;;;;;;;11.00;11.00;;;;;30.21;48.71;98710.84;5049243;28;8904;-71
2020/12/28 07:26:29;;;;;;;;;12.00;12.00;;;;;30.24;49.57;98712.75;5052008;28;8821;-71
2020/12/28 07:28:58;;;;;;;;;14.00;12.00;;;;;30.26;48.54;98704.19;5046800;28;8901;-71
2020/12/28 07:31:26;;;;;;;;;4.50;3.75;;;;;30.30;48.35;98689.38;5047158;28;8852;-72
2020/12/28 07:33:55;;;;;;;;;9.25;9.25;;;;;30.39;47.10;98697.09;5040046;28;8849;-72
2020/12/28 07:36:25;;;;;;;;;11.50;11.50;;;;;30.53;48.30;98694.28;5043682;28;8812;-72
2020/12/28 07:38:54;;;;;;;;;11.00;11.00;;;;;30.64;47.53;98688.78;5047877;28;8952;-73
2020/12/28 07:41:24;;;;;;;;;15.50;11.75;;;;;30.74;46.85;98687.91;5037319;28;8824;-72
2020/12/28 07:43:57;;;;;;;;;12.00;12.00;;;;;30.81;47.41;98693.28;5040717;28;8894;-72
2020/12/28 07:46:44;;;;;;;;;16.00;13.00;;;;;30.81;46.65;98676.94;5049035;28;8837;-72
2020/12/28 07:49:23;;;;;;;;;9.25;9.25;;;;;30.83;47.30;98664.47;5044147;28;8851;-74
2020/12/28 07:52:04;;;;;;;;;15.75;11.25;;;;;30.97;47.48;98676.41;5026278;28;8941;-73
2020/12/28 07:54:48;;;;;;;;;14.25;10.00;;;;;31.03;49.19;98675.56;5059554;28;8956;-71
2020/12/28 07:57:25;;;;;;;;;13.00;10.00;;;;;31.03;46.40;98670.13;5039039;28;8843;-73
2020/12/28 08:00:05;;;;;;;;;15.00;12.00;;;;;31.06;45.86;98666.59;5042385;28;8874;-71
2020/12/28 08:02:40;;;;;;;;;8.50;8.00;;;;;31.14;49.43;98665.34;5041240;28;8866;-71
2020/12/28 08:05:13;;;;;;;;;11.00;9.25;;;;;31.13;48.17;98655.63;5036783;28;8836;-72
2020/12/28 08:07:42;;;;;;;;;11.00;9.50;;;;;31.07;49.56;98659.94;5039265;28;8890;-73
2020/12/28 08:10:12;;;;;;;;;9.50;9.50;;;;;30.98;49.39;98651.50;5038116;28;8835;-73
2020/12/28 08:12:49;;;;;;;;;8.75;8.75;;;;;30.83;47.38;98642.69;5040655;28;8959;-72
2020/12/28 08:15:28;;;;;;;;;33.50;28.00;;;;;30.86;48.15;98646.56;5032806;28;8835;-74
2020/12/28 08:18:07;;;;;;;;;12.25;12.25;;;;;30.83;45.87;98644.63;5030464;28;9400;-74
2020/12/28 08:20:40;;;;;;;;;13.00;12.75;;;;;30.85;47.76;98645.00;5039417;28;8831;-74
2020/12/28 08:23:09;;;;;;;;;10.25;10.25;;;;;30.90;48.34;98650.00;5045913;28;8826;-73
2020/12/28 08:25:37;;;;;;;;;10.75;10.75;;;;;30.90;47.08;98651.97;5047459;28;8952;-74
2020/12/28 08:28:27;;;;;;;;;9.00;8.00;;;;;30.89;49.12;98653.16;5043233;28;8814;-74
2020/12/28 08:30:58;;;;;;;;;10.75;10.75;;;;;30.85;47.41;98642.28;4983205;28;8846;-73
2020/12/28 08:33:26;;;;;;;;;10.25;8.50;;;;;30.79;45.65;98633.00;4964452;28;8872;-73
2020/12/28 08:35:54;;;;;;;;;12.50;9.75;;;;;30.89;48.07;98643.03;4976880;28;8834;-72
2020/12/28 08:38:32;;;;;;;;;9.75;8.25;;;;;30.90;47.20;98635.63;4986108;28;8847;-72
2020/12/28 08:41:00;;;;;;;;;10.75;10.50;;;;;30.85;47.10;98633.34;4981721;28;8834;-72
2020/12/28 08:43:29;;;;;;;;;9.50;9.25;;;;;30.87;46.57;98639.94;4978389;28;8860;-72
2020/12/28 08:46:06;;;;;;;;;11.25;11.25;;;;;30.86;48.73;98638.38;4973619;28;9647;-72
2020/12/28 08:48:35;;;;;;;;;8.00;8.00;;;;;30.80;48.11;98632.59;4974009;28;8974;-72
2020/12/28 08:51:13;;;;;;;;;8.75;7.25;;;;;30.78;47.95;98631.47;4988499;28;8822;-73
2020/12/28 08:53:50;;;;;;;;;8.75;8.75;;;;;30.77;46.12;98635.34;4972123;28;8850;-72
2020/12/28 08:56:19;;;;;;;;;11.25;11.25;;;;;30.71;45.02;98626.84;4987723;28;8830;-72
2020/12/28 08:58:50;;;;;;;;;9.50;9.50;;;;;30.79;44.42;98633.78;4974927;28;8839;-73
2020/12/28 09:01:18;;;;;;;;;8.00;8.00;;;;;30.86;44.59;98630.22;4975634;28;8921;-72
2020/12/28 09:03:47;;;;;;;;;9.75;9.00;;;;;30.94;43.62;98636.34;4984262;28;8833;-73
2020/12/28 09:06:16;;;;;;;;;12.75;11.25;;;;;30.99;43.44;98619.56;4978687;28;8846;-73
2020/12/28 09:08:45;;;;;;;;;10.50;8.75;;;;;31.11;45.73;98628.00;5003990;28;9721;-71
2020/12/28 09:11:13;;;;;;;;;10.50;10.50;;;;;31.21;44.74;98623.59;5034302;28;8862;-72
2020/12/28 09:13:42;;;;;;;;;9.75;8.00;;;;;31.27;43.03;98619.25;5034343;28;8866;-75
2020/12/28 09:16:10;;;;;;;;;9.75;6.50;;;;;31.35;43.23;98619.94;5034176;28;8858;-72
2020/12/28 09:18:39;;;;;;;;;8.00;6.50;;;;;31.41;44.10;98619.06;5041044;28;8840;-72
2020/12/28 09:21:07;;;;;;;;;9.75;7.00;;;;;31.36;43.10;98611.34;5041621;28;9552;-72
2020/12/28 09:23:39;;;;;;;;;10.50;7.75;;;;;31.43;42.82;98624.88;5040365;28;8847;-71
2020/12/28 09:26:10;;;;;;;;;6.75;6.75;;;;;31.44;42.77;98629.16;5042759;28;8895;-72
2020/12/28 09:28:38;;;;;;;;;7.75;7.75;;;;;31.50;43.58;98623.25;5040199;28;8954;-72
2020/12/28 09:31:07;;;;;;;;;8.00;8.00;;;;;31.54;43.47;98623.97;5039606;28;8837;-72
2020/12/28 09:33:35;;;;;;;;;8.00;7.75;;;;;31.50;43.26;98615.06;5046860;28;8857;-72
2020/12/28 09:36:05;;;;;;;;;8.75;8.75;;;;;31.47;44.85;98617.44;5051059;28;8859;-72
2020/12/28 09:38:33;;;;;;;;;11.50;10.25;;;;;31.46;44.11;98623.28;5039376;28;9556;-71
2020/12/28 09:41:02;;;;;;;;;10.50;9.00;;;;;31.43;43.83;98621.38;5040200;28;8869;-72
2020/12/28 09:43:30;;;;;;;;;17.25;14.00;;;;;31.37;45.33;98629.25;5020687;28;8846;-72
2020/12/28 09:45:59;;;;;;;;;17.00;16.25;;;;;31.27;44.51;98632.88;5040846;28;9014;-73
2020/12/28 09:48:27;;;;;;;;;11.25;10.00;;;;;31.16;44.59;98624.06;5041770;28;8847;-73
2020/12/28 09:50:56;;;;;;;;;18.00;14.25;;;;;31.06;46.43;98623.00;5045423;28;8931;-71
2020/12/28 09:53:24;;;;;;;;;14.25;11.00;;;;;31.02;47.31;98629.66;5051555;28;9589;-72
2020/12/28 09:55:53;;;;;;;;;11.25;8.00;;;;;30.92;46.81;98633.25;5050863;28;8840;-71
2020/12/28 09:58:22;;;;;;;;;12.25;12.25;;;;;30.84;46.00;98629.84;5041041;28;8825;-71
2020/12/28 10:00:50;;;;;;;;;12.75;12.75;;;;;30.79;47.21;98643.91;5042561;28;8848;-72
2020/12/28 10:03:18;;;;;;;;;10.00;8.50;;;;;30.66;47.89;98640.91;5041362;28;8955;-72
2020/12/28 10:05:47;;;;;;;;;14.25;10.50;;;;;30.65;47.89;98654.94;5043708;28;8853;-71
2020/12/28 10:08:18;;;;;;;;;12.00;10.75;;;;;30.55;48.15;98645.66;5045772;28;8867;-72
2020/12/28 10:10:46;;;;;;;;;10.50;10.25;;;;;30.45;47.69;98644.56;5045161;28;8826;-73
2020/12/28 10:13:15;;;;;;;;;14.25;12.50;;;;;30.41;47.63;98643.81;5046573;28;8805;-74
2020/12/28 10:15:44;;;;;;;;;14.00;11.00;;;;;30.36;47.41;98655.13;5044553;28;8832;-72
2020/12/28 10:18:39;;;;;;;;;14.75;11.75;;;;;30.29;47.83;98648.97;5027576;28;8814;-72
2020/12/28 10:21:09;;;;;;;;;14.75;11.25;;;;;30.23;48.00;98647.84;5046886;28;8867;-71
2020/12/28 10:23:37;;;;;;;;;14.00;12.00;;;;;30.18;47.49;98651.78;5042863;28;8824;-72
2020/12/28 10:26:19;;;;;;;;;15.25;11.00;;;;;30.12;47.06;98650.66;5042038;28;8856;-71
2020/12/28 10:28:50;;;;;;;;;11.75;11.75;;;;;30.06;46.79;98658.47;5044676;28;8840;-71
2020/12/28 10:31:19;;;;;;;;;11.25;11.25;;;;;29.98;46.67;98661.59;5039376;28;8819;-72
2020/12/28 10:33:54;;;;;;;;;11.50;11.50;;;;;29.99;46.66;98663.13;5041766;28;8828;-71
2020/12/28 10:36:25;;;;;;;;;10.75;10.75;;;;;29.98;46.39;98667.03;5042538;28;8860;-73
2020/12/28 10:38:59;;;;;;;;;10.50;10.50;;;;;29.95;46.22;98667.81;5046837;28;8828;-72
2020/12/28 10:41:32;;;;;;;;;8.75;8.00;;;;;29.94;45.99;98669.78;5043373;28;8846;-71
2020/12/28 10:44:01;;;;;;;;;9.00;9.00;;;;;29.92;46.33;98674.84;5047193;28;8835;-71
2020/12/28 10:46:42;;;;;;;;;12.25;10.25;;;;;29.90;46.31;98690.03;5044067;28;8819;-71
2020/12/28 10:49:13;;;;;;;;;10.50;8.75;;;;;29.88;46.17;98681.50;5042468;28;8849;-72
2020/12/28 10:51:45;;;;;;;;;9.25;9.25;;;;;29.85;45.76;98689.28;5044683;28;8843;-72
2020/12/28 10:54:13;;;;;;;;;12.75;12.25;;;;;29.84;45.91;98693.16;5041295;28;8836;-73
2020/12/28 10:56:41;;;;;;;;;17.75;15.00;;;;;29.80;46.69;98684.25;5041456;28;9543;-73
2020/12/28 10:59:12;;;;;;;;;14.75;14.50;;;;;29.80;46.34;98700.56;5025494;28;9636;-71
2020/12/28 11:01:41;;;;;;;;;15.50;14.75;;;;;29.75;46.64;98692.03;5041450;28;9554;-72
2020/12/28 11:04:09;;;;;;;;;13.25;13.25;;;;;29.75;46.40;98695.53;5040900;28;8845;-72
2020/12/28 11:06:41;;;;;;;;;18.00;14.50;;;;;29.71;45.94;98692.06;5039839;28;8844;-72
2020/12/28 11:09:10;;;;;;;;;18.50;16.75;;;;;29.64;46.16;98688.59;5040524;28;8802;-73
2020/12/28 11:11:38;;;;;;;;;12.25;12.25;;;;;29.63;46.54;98690.53;5041306;28;8946;-72
2020/12/28 11:14:06;;;;;;;;;14.75;13.75;;;;;29.63;46.09;98700.63;5042442;28;8928;-72
2020/12/28 11:16:37;;;;;;;;;14.75;14.50;;;;;29.62;46.40;98699.09;5042432;28;8828;-72
2020/12/28 11:19:06;;;;;;;;;12.00;12.00;;;;;29.58;45.86;98707.25;5035280;28;8883;-72
2020/12/28 11:21:35;;;;;;;;;14.00;14.00;;;;;29.58;46.29;98715.41;5041538;28;8851;-72
2020/12/28 11:24:03;;;;;;;;;15.25;11.75;;;;;29.50;46.38;98700.31;5040517;28;8843;-71
2020/12/28 11:26:34;;;;;;;;;13.75;13.75;;;;;29.50;47.39;98703.03;5040543;28;8826;-72
2020/12/28 11:29:05;;;;;;;;;15.50;13.50;;;;;29.50;47.76;98711.16;5042561;28;8852;-71
2020/12/28 11:31:33;;;;;;;;;11.00;10.75;;;;;29.40;47.18;98706.50;5040114;28;8837;-72
2020/12/28 11:34:01;;;;;;;;;17.75;15.25;;;;;29.39;48.18;98721.28;5022657;28;8844;-72
2020/12/28 11:36:30;;;;;;;;;16.25;13.75;;;;;29.33;48.22;98711.97;5041616;28;8924;-72
2020/12/28 11:38:59;;;;;;;;;14.00;14.00;;;;;29.28;47.81;98709.66;5042875;28;8847;-72
2020/12/28 11:41:27;;;;;;;;;15.25;13.00;;;;;29.25;47.58;98724.03;5041004;28;8827;-72
2020/12/28 11:43:55;;;;;;;;;14.00;14.00;;;;;29.20;47.68;98728.69;5051513;28;8887;-72